Bouse, Arizona
Current Conditions -  °F | °C
As of 1:52 AM on Sunday 26 Oct 2014 (Local Time) from KBLH Reporting Station
Clear Clear  
Wind Chill: 76°   Ceiling: Unl
Heat Index: 76°   Visibility: 10mi
Dew Point: 50°   Wind: 6mph
Humidity: 40%   Direction: 250°WSW
Pressure: 29.87"   Gusts: NA
Location:  33.93°N, 114.01°W
Report Text: KBLH 260852Z AUTO 25005KT 10SM CLR 24/10 A2987 RMK AO2 SLP108 T02440100 53001 $
Loading
Personal Weather Stations






























Interactive Weather Map
Tropical Storm Tracking
New forecast layout! Learn more

10-Day Weather Forecast

Advertisements
Track Severe Weather on mobile